sensor_id;sensor_type;location;lat;lon;timestamp;P1;durP1;ratioP1;P2;durP2;ratioP2
27863;SDS011;15980;51.092;13.916;2022-07-03T00:04:18;2.65;;;2.45;;
27863;SDS011;15980;51.092;13.916;2022-07-03T00:09:22;3.58;;;2.80;;
27863;SDS011;15980;51.092;13.916;2022-07-03T00:14:26;3.75;;;3.15;;
27863;SDS011;15980;51.092;13.916;2022-07-03T00:19:30;3.85;;;2.95;;
27863;SDS011;15980;51.092;13.916;2022-07-03T00:24:33;3.78;;;3.13;;
27863;SDS011;15980;51.092;13.916;2022-07-03T00:29:46;3.67;;;2.55;;
27863;SDS011;15980;51.092;13.916;2022-07-03T00:34:52;3.17;;;2.75;;
27863;SDS011;15980;51.092;13.916;2022-07-03T00:39:56;2.97;;;2.40;;
27863;SDS011;15980;51.092;13.916;2022-07-03T00:45:01;3.60;;;2.60;;
27863;SDS011;15980;51.092;13.916;2022-07-03T00:50:05;3.45;;;3.03;;
27863;SDS011;15980;51.092;13.916;2022-07-03T00:55:11;3.17;;;2.65;;
27863;SDS011;15980;51.092;13.916;2022-07-03T01:00:20;3.55;;;2.97;;
27863;SDS011;15980;51.092;13.916;2022-07-03T01:05:25;3.95;;;2.80;;
27863;SDS011;15980;51.092;13.916;2022-07-03T01:10:36;3.50;;;2.40;;
27863;SDS011;15980;51.092;13.916;2022-07-03T01:15:47;4.00;;;3.13;;
27863;SDS011;15980;51.092;13.916;2022-07-03T01:20:57;3.30;;;2.70;;
27863;SDS011;15980;51.092;13.916;2022-07-03T01:26:07;3.88;;;3.00;;
27863;SDS011;15980;51.092;13.916;2022-07-03T01:31:13;3.30;;;3.00;;
27863;SDS011;15980;51.092;13.916;2022-07-03T01:36:21;4.25;;;3.50;;
27863;SDS011;15980;51.092;13.916;2022-07-03T01:41:28;4.63;;;3.75;;
27863;SDS011;15980;51.092;13.916;2022-07-03T01:46:32;5.45;;;3.45;;
27863;SDS011;15980;51.092;13.916;2022-07-03T01:51:35;5.18;;;3.50;;
27863;SDS011;15980;51.092;13.916;2022-07-03T01:56:43;5.20;;;3.55;;
27863;SDS011;15980;51.092;13.916;2022-07-03T02:01:48;5.47;;;4.53;;
27863;SDS011;15980;51.092;13.916;2022-07-03T02:06:56;8.13;;;6.00;;
27863;SDS011;15980;51.092;13.916;2022-07-03T02:12:12;9.23;;;5.65;;
27863;SDS011;15980;51.092;13.916;2022-07-03T02:17:16;7.53;;;5.55;;
27863;SDS011;15980;51.092;13.916;2022-07-03T02:22:21;7.03;;;4.93;;
27863;SDS011;15980;51.092;13.916;2022-07-03T02:27:31;5.22;;;4.05;;
27863;SDS011;15980;51.092;13.916;2022-07-03T02:32:43;5.13;;;3.78;;
27863;SDS011;15980;51.092;13.916;2022-07-03T02:37:52;5.28;;;3.50;;
27863;SDS011;15980;51.092;13.916;2022-07-03T02:43:13;4.45;;;3.58;;
27863;SDS011;15980;51.092;13.916;2022-07-03T02:48:22;4.63;;;3.63;;
27863;SDS011;15980;51.092;13.916;2022-07-03T02:53:33;3.70;;;2.97;;
27863;SDS011;15980;51.092;13.916;2022-07-03T02:58:48;4.38;;;3.10;;
27863;SDS011;15980;51.092;13.916;2022-07-03T03:04:02;3.35;;;3.00;;
27863;SDS011;15980;51.092;13.916;2022-07-03T03:14:20;3.10;;;2.20;;
27863;SDS011;15980;51.092;13.916;2022-07-03T03:19:25;3.17;;;2.55;;
27863;SDS011;15980;51.092;13.916;2022-07-03T03:24:28;2.80;;;2.40;;
27863;SDS011;15980;51.092;13.916;2022-07-03T03:29:35;2.78;;;2.40;;
27863;SDS011;15980;51.092;13.916;2022-07-03T03:34:39;3.63;;;2.47;;
27863;SDS011;15980;51.092;13.916;2022-07-03T03:39:43;3.38;;;2.42;;
27863;SDS011;15980;51.092;13.916;2022-07-03T03:44:48;2.95;;;2.13;;
27863;SDS011;15980;51.092;13.916;2022-07-03T03:49:51;2.60;;;2.33;;
27863;SDS011;15980;51.092;13.916;2022-07-03T03:54:54;3.20;;;2.55;;
27863;SDS011;15980;51.092;13.916;2022-07-03T03:59:59;9.23;;;3.35;;
27863;SDS011;15980;51.092;13.916;2022-07-03T04:05:03;4.55;;;3.35;;
27863;SDS011;15980;51.092;13.916;2022-07-03T04:10:07;3.38;;;3.05;;
27863;SDS011;15980;51.092;13.916;2022-07-03T04:15:11;5.20;;;3.90;;
27863;SDS011;15980;51.092;13.916;2022-07-03T04:20:14;3.35;;;3.05;;
27863;SDS011;15980;51.092;13.916;2022-07-03T04:25:17;4.70;;;3.35;;
27863;SDS011;15980;51.092;13.916;2022-07-03T04:30:22;3.40;;;3.08;;
27863;SDS011;15980;51.092;13.916;2022-07-03T04:35:25;3.72;;;2.97;;
27863;SDS011;15980;51.092;13.916;2022-07-03T04:40:28;4.00;;;3.50;;
27863;SDS011;15980;51.092;13.916;2022-07-03T04:45:32;3.70;;;3.05;;
27863;SDS011;15980;51.092;13.916;2022-07-03T04:50:35;6.05;;;2.90;;
27863;SDS011;15980;51.092;13.916;2022-07-03T04:55:38;3.83;;;3.03;;
27863;SDS011;15980;51.092;13.916;2022-07-03T05:00:43;3.45;;;3.08;;
27863;SDS011;15980;51.092;13.916;2022-07-03T05:05:46;3.72;;;3.03;;
27863;SDS011;15980;51.092;13.916;2022-07-03T05:10:49;3.25;;;2.95;;
27863;SDS011;15980;51.092;13.916;2022-07-03T05:15:54;3.88;;;3.22;;
27863;SDS011;15980;51.092;13.916;2022-07-03T05:20:57;3.20;;;2.90;;
27863;SDS011;15980;51.092;13.916;2022-07-03T05:26:00;3.00;;;2.70;;
27863;SDS011;15980;51.092;13.916;2022-07-03T05:31:04;3.90;;;3.28;;
27863;SDS011;15980;51.092;13.916;2022-07-03T05:36:08;3.90;;;2.83;;
27863;SDS011;15980;51.092;13.916;2022-07-03T05:41:11;4.55;;;3.40;;
27863;SDS011;15980;51.092;13.916;2022-07-03T05:46:15;3.70;;;3.15;;
27863;SDS011;15980;51.092;13.916;2022-07-03T05:51:18;4.22;;;3.35;;
27863;SDS011;15980;51.092;13.916;2022-07-03T05:56:21;4.22;;;3.28;;
27863;SDS011;15980;51.092;13.916;2022-07-03T06:01:26;3.55;;;3.22;;
27863;SDS011;15980;51.092;13.916;2022-07-03T06:06:29;3.42;;;2.90;;
27863;SDS011;15980;51.092;13.916;2022-07-03T06:11:32;3.33;;;2.95;;
27863;SDS011;15980;51.092;13.916;2022-07-03T06:16:36;4.05;;;3.25;;
27863;SDS011;15980;51.092;13.916;2022-07-03T06:21:39;4.43;;;3.13;;
27863;SDS011;15980;51.092;13.916;2022-07-03T06:26:43;4.82;;;3.42;;
27863;SDS011;15980;51.092;13.916;2022-07-03T06:31:47;5.00;;;3.20;;
27863;SDS011;15980;51.092;13.916;2022-07-03T06:36:50;2.97;;;2.67;;
27863;SDS011;15980;51.092;13.916;2022-07-03T06:41:53;3.90;;;3.20;;
27863;SDS011;15980;51.092;13.916;2022-07-03T06:46:58;3.17;;;2.75;;
27863;SDS011;15980;51.092;13.916;2022-07-03T06:52:04;3.38;;;3.03;;
27863;SDS011;15980;51.092;13.916;2022-07-03T06:57:07;5.90;;;3.17;;
27863;SDS011;15980;51.092;13.916;2022-07-03T07:02:11;4.05;;;3.00;;
27863;SDS011;15980;51.092;13.916;2022-07-03T07:07:14;3.20;;;2.90;;
27863;SDS011;15980;51.092;13.916;2022-07-03T07:12:17;3.38;;;2.83;;
27863;SDS011;15980;51.092;13.916;2022-07-03T07:17:22;4.03;;;2.88;;
27863;SDS011;15980;51.092;13.916;2022-07-03T07:22:25;3.30;;;2.78;;
27863;SDS011;15980;51.092;13.916;2022-07-03T07:27:28;3.85;;;2.70;;
27863;SDS011;15980;51.092;13.916;2022-07-03T07:32:32;6.63;;;2.55;;
27863;SDS011;15980;51.092;13.916;2022-07-03T07:37:35;3.22;;;2.55;;
27863;SDS011;15980;51.092;13.916;2022-07-03T07:48:39;4.55;;;2.80;;
27863;SDS011;15980;51.092;13.916;2022-07-03T07:53:42;2.97;;;2.47;;
27863;SDS011;15980;51.092;13.916;2022-07-03T07:58:46;2.83;;;2.30;;
27863;SDS011;15980;51.092;13.916;2022-07-03T08:03:51;4.07;;;2.38;;
27863;SDS011;15980;51.092;13.916;2022-07-03T08:09:12;4.05;;;2.47;;
27863;SDS011;15980;51.092;13.916;2022-07-03T08:14:14;3.08;;;2.28;;
27863;SDS011;15980;51.092;13.916;2022-07-03T08:19:19;3.13;;;2.40;;
27863;SDS011;15980;51.092;13.916;2022-07-03T08:24:22;2.67;;;2.45;;
27863;SDS011;15980;51.092;13.916;2022-07-03T08:29:25;2.20;;;2.00;;
27863;SDS011;15980;51.092;13.916;2022-07-03T08:34:32;2.65;;;2.30;;
27863;SDS011;15980;51.092;13.916;2022-07-03T08:39:35;5.72;;;2.40;;
27863;SDS011;15980;51.092;13.916;2022-07-03T08:44:38;2.55;;;2.30;;
27863;SDS011;15980;51.092;13.916;2022-07-03T08:49:45;2.50;;;2.17;;
27863;SDS011;15980;51.092;13.916;2022-07-03T08:54:53;4.63;;;2.20;;
27863;SDS011;15980;51.092;13.916;2022-07-03T08:59:56;4.18;;;2.70;;
27863;SDS011;15980;51.092;13.916;2022-07-03T09:05:02;3.10;;;2.55;;
27863;SDS011;15980;51.092;13.916;2022-07-03T09:10:06;2.72;;;2.40;;
27863;SDS011;15980;51.092;13.916;2022-07-03T09:15:10;2.50;;;2.08;;
27863;SDS011;15980;51.092;13.916;2022-07-03T09:20:16;6.47;;;2.35;;
27863;SDS011;15980;51.092;13.916;2022-07-03T09:25:19;2.53;;;2.10;;
27863;SDS011;15980;51.092;13.916;2022-07-03T09:30:21;2.47;;;2.28;;
27863;SDS011;15980;51.092;13.916;2022-07-03T09:35:26;2.40;;;2.20;;
27863;SDS011;15980;51.092;13.916;2022-07-03T09:40:46;3.53;;;2.67;;
27863;SDS011;15980;51.092;13.916;2022-07-03T09:45:52;4.15;;;2.00;;
27863;SDS011;15980;51.092;13.916;2022-07-03T09:56:21;2.95;;;2.17;;
27863;SDS011;15980;51.092;13.916;2022-07-03T10:01:26;2.95;;;2.17;;
27863;SDS011;15980;51.092;13.916;2022-07-03T10:06:30;3.33;;;2.33;;
27863;SDS011;15980;51.092;13.916;2022-07-03T10:11:48;3.63;;;2.35;;
27863;SDS011;15980;51.092;13.916;2022-07-03T10:16:52;3.50;;;2.40;;
27863;SDS011;15980;51.092;13.916;2022-07-03T10:22:00;3.08;;;2.50;;
27863;SDS011;15980;51.092;13.916;2022-07-03T10:27:08;2.83;;;2.33;;
27863;SDS011;15980;51.092;13.916;2022-07-03T10:32:11;4.13;;;2.67;;
27863;SDS011;15980;51.092;13.916;2022-07-03T10:37:17;2.42;;;2.22;;
27863;SDS011;15980;51.092;13.916;2022-07-03T10:42:25;2.85;;;2.20;;
27863;SDS011;15980;51.092;13.916;2022-07-03T10:47:51;3.45;;;2.50;;
27863;SDS011;15980;51.092;13.916;2022-07-03T10:52:55;4.85;;;2.20;;
27863;SDS011;15980;51.092;13.916;2022-07-03T10:58:26;2.90;;;2.28;;
27863;SDS011;15980;51.092;13.916;2022-07-03T11:09:04;2.47;;;2.10;;
27863;SDS011;15980;51.092;13.916;2022-07-03T11:19:24;2.85;;;2.40;;
27863;SDS011;15980;51.092;13.916;2022-07-03T11:24:33;2.38;;;2.00;;
27863;SDS011;15980;51.092;13.916;2022-07-03T11:29:40;2.10;;;1.90;;
27863;SDS011;15980;51.092;13.916;2022-07-03T11:34:44;3.60;;;2.08;;
27863;SDS011;15980;51.092;13.916;2022-07-03T11:39:48;2.25;;;2.03;;
27863;SDS011;15980;51.092;13.916;2022-07-03T11:44:56;4.07;;;2.13;;
27863;SDS011;15980;51.092;13.916;2022-07-03T11:50:01;2.22;;;2.00;;
27863;SDS011;15980;51.092;13.916;2022-07-03T11:55:06;2.25;;;1.90;;
27863;SDS011;15980;51.092;13.916;2022-07-03T12:00:10;2.88;;;2.20;;
27863;SDS011;15980;51.092;13.916;2022-07-03T12:05:13;2.10;;;1.85;;
27863;SDS011;15980;51.092;13.916;2022-07-03T12:10:20;2.10;;;1.73;;
27863;SDS011;15980;51.092;13.916;2022-07-03T12:15:23;3.08;;;1.83;;
27863;SDS011;15980;51.092;13.916;2022-07-03T12:20:26;3.15;;;1.67;;
27863;SDS011;15980;51.092;13.916;2022-07-03T12:25:31;1.50;;;1.40;;
27863;SDS011;15980;51.092;13.916;2022-07-03T12:30:34;2.67;;;1.70;;
27863;SDS011;15980;51.092;13.916;2022-07-03T12:42:03;2.58;;;1.73;;
27863;SDS011;15980;51.092;13.916;2022-07-03T12:47:16;2.35;;;1.80;;
27863;SDS011;15980;51.092;13.916;2022-07-03T12:58:22;3.70;;;1.73;;
27863;SDS011;15980;51.092;13.916;2022-07-03T13:03:43;2.92;;;1.75;;
27863;SDS011;15980;51.092;13.916;2022-07-03T13:08:52;1.88;;;1.70;;
27863;SDS011;15980;51.092;13.916;2022-07-03T13:14:05;1.92;;;1.73;;
27863;SDS011;15980;51.092;13.916;2022-07-03T13:19:10;1.73;;;1.63;;
27863;SDS011;15980;51.092;13.916;2022-07-03T13:24:15;1.50;;;1.40;;
27863;SDS011;15980;51.092;13.916;2022-07-03T13:29:21;1.58;;;1.48;;
27863;SDS011;15980;51.092;13.916;2022-07-03T13:34:25;1.70;;;1.50;;
27863;SDS011;15980;51.092;13.916;2022-07-03T13:39:28;2.65;;;1.75;;
27863;SDS011;15980;51.092;13.916;2022-07-03T13:44:33;1.80;;;1.48;;
27863;SDS011;15980;51.092;13.916;2022-07-03T13:49:36;1.30;;;1.20;;
27863;SDS011;15980;51.092;13.916;2022-07-03T13:54:38;2.25;;;1.33;;
27863;SDS011;15980;51.092;13.916;2022-07-03T13:59:43;2.03;;;1.50;;
27863;SDS011;15980;51.092;13.916;2022-07-03T14:04:46;2.13;;;1.40;;
27863;SDS011;15980;51.092;13.916;2022-07-03T14:09:50;3.22;;;1.55;;
27863;SDS011;15980;51.092;13.916;2022-07-03T14:14:55;1.30;;;1.20;;
27863;SDS011;15980;51.092;13.916;2022-07-03T14:19:58;1.45;;;1.35;;
27863;SDS011;15980;51.092;13.916;2022-07-03T14:25:02;1.42;;;1.30;;
27863;SDS011;15980;51.092;13.916;2022-07-03T14:30:07;1.77;;;1.67;;
27863;SDS011;15980;51.092;13.916;2022-07-03T14:35:28;2.10;;;1.55;;
27863;SDS011;15980;51.092;13.916;2022-07-03T14:40:31;1.92;;;1.50;;
27863;SDS011;15980;51.092;13.916;2022-07-03T14:45:36;1.83;;;1.48;;
27863;SDS011;15980;51.092;13.916;2022-07-03T14:50:41;2.22;;;1.40;;
27863;SDS011;15980;51.092;13.916;2022-07-03T14:55:47;4.18;;;1.83;;
27863;SDS011;15980;51.092;13.916;2022-07-03T15:00:53;1.85;;;1.60;;
27863;SDS011;15980;51.092;13.916;2022-07-03T15:05:58;2.30;;;1.70;;
27863;SDS011;15980;51.092;13.916;2022-07-03T15:11:03;1.60;;;1.40;;
27863;SDS011;15980;51.092;13.916;2022-07-03T15:16:10;1.48;;;1.38;;
27863;SDS011;15980;51.092;13.916;2022-07-03T15:21:13;1.42;;;1.30;;
27863;SDS011;15980;51.092;13.916;2022-07-03T15:26:18;2.75;;;1.80;;
27863;SDS011;15980;51.092;13.916;2022-07-03T15:31:24;1.92;;;1.75;;
27863;SDS011;15980;51.092;13.916;2022-07-03T15:36:29;2.28;;;1.40;;
27863;SDS011;15980;51.092;13.916;2022-07-03T15:41:44;1.33;;;1.23;;
27863;SDS011;15980;51.092;13.916;2022-07-03T15:46:58;1.55;;;1.35;;
27863;SDS011;15980;51.092;13.916;2022-07-03T15:52:16;2.47;;;1.67;;
27863;SDS011;15980;51.092;13.916;2022-07-03T15:57:24;3.00;;;2.15;;
27863;SDS011;15980;51.092;13.916;2022-07-03T16:02:32;3.58;;;2.85;;
27863;SDS011;15980;51.092;13.916;2022-07-03T16:07:53;3.78;;;3.10;;
27863;SDS011;15980;51.092;13.916;2022-07-03T16:12:56;5.05;;;3.50;;
27863;SDS011;15980;51.092;13.916;2022-07-03T16:18:02;17.67;;;15.32;;
27863;SDS011;15980;51.092;13.916;2022-07-03T16:23:07;16.02;;;12.27;;
27863;SDS011;15980;51.092;13.916;2022-07-03T16:28:11;8.27;;;6.68;;
27863;SDS011;15980;51.092;13.916;2022-07-03T16:33:16;3.60;;;3.25;;
27863;SDS011;15980;51.092;13.916;2022-07-03T16:38:28;2.10;;;2.00;;
27863;SDS011;15980;51.092;13.916;2022-07-03T16:43:38;4.07;;;2.50;;
27863;SDS011;15980;51.092;13.916;2022-07-03T16:48:48;2.67;;;2.22;;
27863;SDS011;15980;51.092;13.916;2022-07-03T16:53:51;1.63;;;1.52;;
27863;SDS011;15980;51.092;13.916;2022-07-03T16:58:55;1.15;;;1.05;;
27863;SDS011;15980;51.092;13.916;2022-07-03T17:03:59;2.15;;;1.58;;
27863;SDS011;15980;51.092;13.916;2022-07-03T17:09:04;1.35;;;1.25;;
27863;SDS011;15980;51.092;13.916;2022-07-03T17:14:10;1.45;;;1.17;;
27863;SDS011;15980;51.092;13.916;2022-07-03T17:19:16;0.90;;;0.90;;
27863;SDS011;15980;51.092;13.916;2022-07-03T17:24:26;3.67;;;2.10;;
27863;SDS011;15980;51.092;13.916;2022-07-03T17:29:33;2.63;;;2.13;;
27863;SDS011;15980;51.092;13.916;2022-07-03T17:34:48;3.15;;;2.72;;
27863;SDS011;15980;51.092;13.916;2022-07-03T17:39:55;3.00;;;2.70;;
27863;SDS011;15980;51.092;13.916;2022-07-03T17:44:58;3.10;;;2.40;;
27863;SDS011;15980;51.092;13.916;2022-07-03T17:50:04;3.25;;;2.60;;
27863;SDS011;15980;51.092;13.916;2022-07-03T17:55:08;2.38;;;2.17;;
27863;SDS011;15980;51.092;13.916;2022-07-03T18:00:13;2.45;;;2.03;;
27863;SDS011;15980;51.092;13.916;2022-07-03T18:05:20;2.38;;;2.17;;
27863;SDS011;15980;51.092;13.916;2022-07-03T18:10:25;2.80;;;2.40;;
27863;SDS011;15980;51.092;13.916;2022-07-03T18:15:34;8.52;;;2.42;;
27863;SDS011;15980;51.092;13.916;2022-07-03T18:20:41;3.22;;;2.40;;
27863;SDS011;15980;51.092;13.916;2022-07-03T18:25:46;2.28;;;2.10;;
27863;SDS011;15980;51.092;13.916;2022-07-03T18:30:51;2.45;;;2.08;;
27863;SDS011;15980;51.092;13.916;2022-07-03T18:35:55;3.10;;;2.25;;
27863;SDS011;15980;51.092;13.916;2022-07-03T18:41:00;2.20;;;2.00;;
27863;SDS011;15980;51.092;13.916;2022-07-03T18:46:03;5.60;;;2.17;;
27863;SDS011;15980;51.092;13.916;2022-07-03T18:51:10;2.65;;;2.20;;
27863;SDS011;15980;51.092;13.916;2022-07-03T18:56:20;2.13;;;1.92;;
27863;SDS011;15980;51.092;13.916;2022-07-03T19:01:31;2.55;;;2.08;;
27863;SDS011;15980;51.092;13.916;2022-07-03T19:06:37;5.30;;;2.20;;
27863;SDS011;15980;51.092;13.916;2022-07-03T19:11:43;2.35;;;2.15;;
27863;SDS011;15980;51.092;13.916;2022-07-03T19:16:51;2.33;;;1.98;;
27863;SDS011;15980;51.092;13.916;2022-07-03T19:22:06;4.07;;;2.10;;
27863;SDS011;15980;51.092;13.916;2022-07-03T19:27:10;2.40;;;2.20;;
27863;SDS011;15980;51.092;13.916;2022-07-03T19:32:13;2.80;;;2.45;;
27863;SDS011;15980;51.092;13.916;2022-07-03T19:37:18;2.67;;;2.45;;
27863;SDS011;15980;51.092;13.916;2022-07-03T19:42:21;3.28;;;2.22;;
27863;SDS011;15980;51.092;13.916;2022-07-03T19:47:24;2.40;;;2.20;;
27863;SDS011;15980;51.092;13.916;2022-07-03T19:52:28;2.40;;;2.20;;
27863;SDS011;15980;51.092;13.916;2022-07-03T19:57:32;3.22;;;2.55;;
27863;SDS011;15980;51.092;13.916;2022-07-03T20:02:35;3.88;;;2.95;;
27863;SDS011;15980;51.092;13.916;2022-07-03T20:07:39;3.53;;;2.42;;
27863;SDS011;15980;51.092;13.916;2022-07-03T20:12:42;3.67;;;2.45;;
27863;SDS011;15980;51.092;13.916;2022-07-03T20:17:46;2.90;;;2.60;;
27863;SDS011;15980;51.092;13.916;2022-07-03T20:23:11;2.55;;;2.35;;
27863;SDS011;15980;51.092;13.916;2022-07-03T20:28:15;2.70;;;2.28;;
27863;SDS011;15980;51.092;13.916;2022-07-03T20:33:19;2.60;;;2.40;;
27863;SDS011;15980;51.092;13.916;2022-07-03T20:38:24;3.25;;;2.78;;
27863;SDS011;15980;51.092;13.916;2022-07-03T20:43:40;3.00;;;2.70;;
27863;SDS011;15980;51.092;13.916;2022-07-03T20:48:43;2.58;;;2.38;;
27863;SDS011;15980;51.092;13.916;2022-07-03T20:53:48;3.50;;;2.65;;
27863;SDS011;15980;51.092;13.916;2022-07-03T20:58:52;2.75;;;2.42;;
27863;SDS011;15980;51.092;13.916;2022-07-03T21:03:55;3.00;;;2.78;;
27863;SDS011;15980;51.092;13.916;2022-07-03T21:08:59;3.97;;;2.72;;
27863;SDS011;15980;51.092;13.916;2022-07-03T21:14:05;3.92;;;2.70;;
27863;SDS011;15980;51.092;13.916;2022-07-03T21:19:14;3.42;;;2.83;;
27863;SDS011;15980;51.092;13.916;2022-07-03T21:24:20;3.80;;;2.78;;
27863;SDS011;15980;51.092;13.916;2022-07-03T21:29:25;2.97;;;2.70;;
27863;SDS011;15980;51.092;13.916;2022-07-03T21:34:28;3.13;;;2.60;;
27863;SDS011;15980;51.092;13.916;2022-07-03T21:39:32;3.17;;;2.70;;
27863;SDS011;15980;51.092;13.916;2022-07-03T21:44:35;5.25;;;2.95;;
27863;SDS011;15980;51.092;13.916;2022-07-03T21:49:38;2.58;;;2.38;;
27863;SDS011;15980;51.092;13.916;2022-07-03T21:54:42;3.15;;;2.85;;
27863;SDS011;15980;51.092;13.916;2022-07-03T21:59:45;3.65;;;3.10;;
27863;SDS011;15980;51.092;13.916;2022-07-03T22:04:49;3.03;;;2.55;;
27863;SDS011;15980;51.092;13.916;2022-07-03T22:09:53;3.10;;;2.80;;
27863;SDS011;15980;51.092;13.916;2022-07-03T22:14:56;3.35;;;2.80;;
27863;SDS011;15980;51.092;13.916;2022-07-03T22:20:01;3.25;;;2.55;;
27863;SDS011;15980;51.092;13.916;2022-07-03T22:25:07;3.30;;;2.90;;
27863;SDS011;15980;51.092;13.916;2022-07-03T22:30:12;3.10;;;2.80;;
27863;SDS011;15980;51.092;13.916;2022-07-03T22:35:16;3.50;;;3.20;;
27863;SDS011;15980;51.092;13.916;2022-07-03T22:40:21;4.15;;;3.25;;
27863;SDS011;15980;51.092;13.916;2022-07-03T22:45:24;6.38;;;3.00;;
27863;SDS011;15980;51.092;13.916;2022-07-03T22:50:28;3.47;;;3.03;;
27863;SDS011;15980;51.092;13.916;2022-07-03T22:55:32;3.20;;;2.67;;
27863;SDS011;15980;51.092;13.916;2022-07-03T23:00:35;3.13;;;2.70;;
27863;SDS011;15980;51.092;13.916;2022-07-03T23:05:38;4.68;;;2.97;;
27863;SDS011;15980;51.092;13.916;2022-07-03T23:10:43;3.33;;;2.97;;
27863;SDS011;15980;51.092;13.916;2022-07-03T23:15:46;2.78;;;2.58;;
27863;SDS011;15980;51.092;13.916;2022-07-03T23:20:49;2.90;;;2.60;;
27863;SDS011;15980;51.092;13.916;2022-07-03T23:25:54;4.00;;;3.03;;
27863;SDS011;15980;51.092;13.916;2022-07-03T23:30:57;3.47;;;2.53;;
27863;SDS011;15980;51.092;13.916;2022-07-03T23:36:00;3.03;;;2.72;;
27863;SDS011;15980;51.092;13.916;2022-07-03T23:41:05;3.53;;;2.90;;
27863;SDS011;15980;51.092;13.916;2022-07-03T23:46:08;2.83;;;2.55;;
27863;SDS011;15980;51.092;13.916;2022-07-03T23:51:11;3.40;;;3.10;;
27863;SDS011;15980;51.092;13.916;2022-07-03T23:56:15;3.03;;;2.72;;
